Time;durP1;ratioP1;P1;durP2;ratioP2;P2;SDS_P1;SDS_P2;PMS_P1;PMS_P2;Temp;Humidity;BMP_temperature;BMP_pressure;BME280_temperature;BME280_humidity;BME280_pressure;Samples;Min_cycle;Max_cycle;Signal;HPM_P1;HPM_P2
2023/09/26 00:00:51;;;;;;;;;19.20;15.20;;;;;21.49;100.00;99655.44;6244942;27;96378;-63
2023/09/26 00:03:54;;;;;;;;;14.20;13.80;;;;;21.46;100.00;99645.81;6244922;28;96316;-62
2023/09/26 00:06:59;;;;;;;;;16.00;14.67;;;;;21.47;100.00;99649.41;6244964;28;96307;-63
2023/09/26 00:10:06;;;;;;;;;17.20;15.20;;;;;21.46;100.00;99642.25;6245971;27;96253;-63
2023/09/26 00:13:09;;;;;;;;;15.60;14.60;;;;;21.47;100.00;99644.72;6243168;28;96732;-63
2023/09/26 00:16:13;;;;;;;;;19.40;16.00;;;;;21.45;100.00;99644.16;6244375;28;96372;-63
2023/09/26 00:19:16;;;;;;;;;17.80;16.00;;;;;21.47;100.00;99642.00;6244511;28;96205;-63
2023/09/26 00:22:20;;;;;;;;;15.00;15.00;;;;;21.40;100.00;99640.63;6243231;28;98410;-63
2023/09/26 00:25:25;;;;;;;;;15.00;13.60;;;;;21.43;100.00;99634.59;6243888;28;96854;-63
2023/09/26 00:28:28;;;;;;;;;14.60;13.60;;;;;21.31;100.00;99610.16;6244288;28;96029;-63
2023/09/26 00:31:33;;;;;;;;;17.20;15.00;;;;;21.51;100.00;99639.50;6241892;28;97048;-62
2023/09/26 00:34:37;;;;;;;;;15.50;14.50;;;;;21.50;100.00;99632.41;6243385;28;96350;-63
2023/09/26 00:37:42;;;;;;;;;19.60;17.40;;;;;21.45;100.00;99632.41;6225994;28;98662;-63
2023/09/26 00:40:46;;;;;;;;;15.60;13.60;;;;;21.40;100.00;99638.72;6243061;27;96449;-63
2023/09/26 00:43:50;;;;;;;;;16.00;14.20;;;;;21.43;100.00;99640.91;6241505;28;99186;-63
2023/09/26 00:46:55;;;;;;;;;19.40;16.40;;;;;21.34;100.00;99619.78;6243600;28;96412;-63
2023/09/26 00:49:58;;;;;;;;;18.80;17.00;;;;;21.39;100.00;99634.31;6242636;28;96628;-63
2023/09/26 00:53:03;;;;;;;;;15.20;14.00;;;;;21.40;100.00;99632.41;6240445;28;98611;-63
2023/09/26 00:56:09;;;;;;;;;15.00;13.80;;;;;21.43;100.00;99635.41;6242586;28;96719;-63
2023/09/26 00:59:12;;;;;;;;;17.00;14.00;;;;;21.44;100.00;99636.25;6243092;28;96365;-63
2023/09/26 01:02:15;;;;;;;;;16.00;14.00;;;;;21.42;100.00;99630.19;6242684;28;97041;-63
2023/09/26 01:05:19;;;;;;;;;16.80;14.40;;;;;21.44;100.00;99636.25;6241745;28;96671;-62
2023/09/26 01:08:22;;;;;;;;;19.00;17.00;;;;;21.43;100.00;99635.41;6243364;28;96361;-63
2023/09/26 01:11:27;;;;;;;;;15.00;11.75;;;;;21.46;100.00;99639.50;6240845;28;98521;-63
2023/09/26 01:14:31;;;;;;;;;15.50;14.00;;;;;21.47;100.00;99644.72;6224282;28;96869;-63
2023/09/26 01:17:34;;;;;;;;;17.00;15.80;;;;;21.43;100.00;99634.59;6241446;28;96880;-63
2023/09/26 01:20:39;;;;;;;;;17.00;15.00;;;;;21.38;100.00;99646.38;6223793;28;96673;-62
2023/09/26 01:23:43;;;;;;;;;14.75;13.75;;;;;21.38;100.00;99646.38;6241836;27;96317;-63
2023/09/26 01:26:48;;;;;;;;;20.00;17.00;;;;;21.43;100.00;99631.84;6242512;28;96379;-63
2023/09/26 01:29:52;;;;;;;;;17.00;15.00;;;;;21.43;100.00;99638.16;6242896;28;96388;-63
2023/09/26 01:32:55;;;;;;;;;15.80;14.00;;;;;21.45;100.00;99641.44;6258388;27;97515;-63
2023/09/26 01:35:59;;;;;;;;;14.80;13.00;;;;;21.49;100.00;99633.50;6241810;28;96357;-63
2023/09/26 01:39:02;;;;;;;;;15.00;15.00;;;;;21.51;100.00;99632.09;6244073;27;96253;-63
2023/09/26 01:42:07;;;;;;;;;16.00;14.00;;;;;21.48;100.00;99632.66;6242137;28;96346;-63
2023/09/26 01:45:10;;;;;;;;;16.60;14.00;;;;;21.48;100.00;99640.06;6242617;28;96342;-63
2023/09/26 01:48:14;;;;;;;;;17.50;15.50;;;;;21.51;100.00;99634.84;6224390;28;97395;-63
2023/09/26 01:51:18;;;;;;;;;14.20;12.00;;;;;21.51;100.00;99642.25;6243236;27;96275;-63
2023/09/26 01:54:21;;;;;;;;;17.20;13.80;;;;;21.53;100.00;99632.66;6241299;28;96530;-63
2023/09/26 01:57:26;;;;;;;;;15.40;13.40;;;;;21.53;100.00;99632.66;6224288;28;96835;-63
2023/09/26 02:00:29;;;;;;;;;14.25;13.00;;;;;21.54;100.00;99626.09;6241272;28;96385;-63
2023/09/26 02:03:34;;;;;;;;;14.25;12.25;;;;;21.54;100.00;99628.84;6241228;28;96604;-63
2023/09/26 02:06:37;;;;;;;;;13.00;11.20;;;;;21.55;100.00;99633.19;6241515;28;96510;-63
2023/09/26 02:09:40;;;;;;;;;16.00;15.00;;;;;21.55;100.00;99646.13;6240845;28;96962;-64
2023/09/26 02:12:46;;;;;;;;;18.00;15.00;;;;;21.50;100.00;99657.88;6241625;28;96430;-63
2023/09/26 02:15:50;;;;;;;;;13.40;12.00;;;;;21.59;100.00;99661.75;6241856;28;96329;-63
2023/09/26 02:18:53;;;;;;;;;13.60;12.60;;;;;21.61;100.00;99664.22;6239738;28;98490;-63
2023/09/26 02:21:56;;;;;;;;;14.20;13.20;;;;;21.55;100.00;99663.38;6241170;28;96281;-63
2023/09/26 02:25:00;;;;;;;;;13.00;12.80;;;;;21.54;100.00;99669.16;6240174;28;98403;-62
2023/09/26 02:28:05;;;;;;;;;18.00;16.00;;;;;21.51;100.00;99681.50;6242309;28;96339;-63
2023/09/26 02:31:15;;;;;;;;;15.25;12.00;;;;;21.48;100.00;99684.78;6242319;28;96460;-63
2023/09/26 02:34:19;;;;;;;;;12.00;11.20;;;;;21.45;100.00;99684.53;6241820;27;96273;-63
2023/09/26 02:37:22;;;;;;;;;16.00;14.75;;;;;21.40;100.00;99690.84;6245317;28;96438;-63
2023/09/26 02:40:25;;;;;;;;;16.67;14.00;;;;;21.31;100.00;99688.88;6243948;28;96792;-63
2023/09/26 02:43:30;;;;;;;;;13.40;12.60;;;;;21.27;100.00;99696.84;6244721;28;96400;-62
2023/09/26 02:46:33;;;;;;;;;17.00;15.00;;;;;21.25;100.00;99699.03;6244407;28;96847;-63
2023/09/26 02:49:36;;;;;;;;;18.60;16.00;;;;;21.18;100.00;99710.25;6244577;28;96469;-63
2023/09/26 02:52:41;;;;;;;;;16.50;15.50;;;;;21.12;100.00;99715.97;6245144;27;96870;-63
2023/09/26 02:55:45;;;;;;;;;17.00;14.60;;;;;21.03;100.00;99721.16;6244468;28;96310;-63
2023/09/26 02:58:49;;;;;;;;;22.60;21.60;;;;;21.02;100.00;99727.72;6245243;28;96536;-63
2023/09/26 03:01:52;;;;;;;;;25.50;21.50;;;;;21.03;100.00;99743.09;6243548;27;96394;-63
2023/09/26 03:04:56;;;;;;;;;27.80;24.40;;;;;21.00;100.00;99732.69;6244909;28;96940;-63
2023/09/26 03:07:59;;;;;;;;;27.00;25.00;;;;;20.94;100.00;99733.75;6242944;28;98387;-63
2023/09/26 03:11:03;;;;;;;;;18.40;17.40;;;;;20.90;100.00;99740.88;6245614;28;96377;-63
2023/09/26 03:14:07;;;;;;;;;21.20;16.00;;;;;20.84;100.00;99744.66;6227690;28;96927;-63
2023/09/26 03:17:11;;;;;;;;;18.60;17.00;;;;;20.77;100.00;99747.66;6246562;28;96331;-63
2023/09/26 03:20:15;;;;;;;;;17.40;14.00;;;;;20.71;100.00;99740.50;6245973;28;96299;-62
2023/09/26 03:23:19;;;;;;;;;16.00;15.00;;;;;20.67;100.00;99744.84;6245451;27;96539;-62
2023/09/26 03:26:22;;;;;;;;;21.00;17.20;;;;;20.68;100.00;99749.25;6223046;28;98442;-63
2023/09/26 03:29:28;;;;;;;;;18.50;15.50;;;;;20.64;100.00;99753.63;6237022;28;97074;-63
2023/09/26 03:32:31;;;;;;;;;13.00;12.00;;;;;20.63;100.00;99753.88;6245317;27;96342;-63
2023/09/26 03:35:34;;;;;;;;;14.00;13.00;;;;;20.61;100.00;99756.91;6244862;28;96419;-62
2023/09/26 03:38:37;;;;;;;;;19.00;16.40;;;;;20.55;100.00;99755.22;6243252;28;96296;-63
2023/09/26 03:41:42;;;;;;;;;15.50;13.50;;;;;20.55;100.00;99770.81;6244637;27;96275;-63
2023/09/26 03:44:47;;;;;;;;;17.00;13.40;;;;;20.49;100.00;99767.22;6245700;27;96268;-63
2023/09/26 03:47:51;;;;;;;;;17.00;15.00;;;;;20.46;100.00;99765.03;6243847;27;96847;-62
2023/09/26 03:50:54;;;;;;;;;14.60;13.60;;;;;20.45;100.00;99766.13;6242762;27;96317;-63
2023/09/26 03:53:57;;;;;;;;;17.00;15.00;;;;;20.40;100.00;99773.47;6240427;27;97862;-63
2023/09/26 03:57:01;;;;;;;;;16.00;13.00;;;;;20.41;100.00;99770.47;6237253;27;96390;-63
2023/09/26 04:00:14;;;;;;;;;17.00;15.00;;;;;20.41;100.00;99775.97;6232743;28;97432;-63
2023/09/26 04:03:17;;;;;;;;;16.20;15.20;;;;;20.42;100.00;99771.31;6242541;27;96306;-63
2023/09/26 04:06:24;;;;;;;;;14.60;12.00;;;;;20.43;100.00;99779.25;6229058;28;97257;-63
2023/09/26 04:09:28;;;;;;;;;14.00;12.00;;;;;20.43;100.00;99781.97;6242026;28;96777;-63
2023/09/26 04:12:31;;;;;;;;;17.80;15.20;;;;;20.43;100.00;99779.25;6241752;27;96930;-63
2023/09/26 04:15:38;;;;;;;;;16.40;14.20;;;;;20.44;100.00;99788.28;6243424;28;96963;-63
2023/09/26 04:18:41;;;;;;;;;17.00;14.00;;;;;20.42;100.00;99788.56;6240103;27;96331;-63
2023/09/26 04:21:45;;;;;;;;;16.00;15.20;;;;;20.43;100.00;99789.41;6241922;27;96344;-63
2023/09/26 04:24:48;;;;;;;;;14.00;13.00;;;;;20.44;100.00;99800.06;6238484;27;97080;-63
2023/09/26 04:27:51;;;;;;;;;16.00;14.00;;;;;20.49;100.00;99807.50;6248758;27;97135;-63
2023/09/26 04:30:56;;;;;;;;;19.60;17.00;;;;;20.47;100.00;99817.91;6236996;27;96595;-63
2023/09/26 04:34:00;;;;;;;;;15.00;14.00;;;;;20.41;100.00;99827.16;6241727;28;96862;-63
2023/09/26 04:37:04;;;;;;;;;18.00;16.00;;;;;20.50;100.00;99836.53;6237339;27;98418;-62
2023/09/26 04:40:10;;;;;;;;;19.00;17.00;;;;;20.52;100.00;99834.38;6240812;27;97511;-62
2023/09/26 04:43:13;;;;;;;;;22.40;18.00;;;;;20.59;100.00;99851.41;6248557;27;97960;-63
2023/09/26 04:46:17;;;;;;;;;16.60;13.60;;;;;20.57;100.00;99848.13;6231975;27;96350;-63
2023/09/26 04:49:21;;;;;;;;;14.00;13.00;;;;;20.55;100.00;99848.38;6229627;27;98525;-63
2023/09/26 04:52:24;;;;;;;;;17.40;15.40;;;;;20.59;100.00;99854.97;6225507;28;96534;-62
2023/09/26 04:55:28;;;;;;;;;19.00;16.00;;;;;20.63;100.00;99852.53;6221196;28;96725;-63
2023/09/26 04:58:32;;;;;;;;;20.00;17.25;;;;;20.62;100.00;99859.09;6219465;28;96508;-63
2023/09/26 05:01:37;;;;;;;;;15.00;12.40;;;;;20.59;100.00;99846.75;6256382;27;96648;-63
2023/09/26 05:04:41;;;;;;;;;15.40;13.40;;;;;20.69;100.00;99863.25;6229498;28;96446;-63
2023/09/26 05:07:45;;;;;;;;;15.00;14.00;;;;;20.67;100.00;99850.94;6241579;27;97098;-63
2023/09/26 05:10:49;;;;;;;;;13.00;12.00;;;;;20.69;100.00;99862.44;6241579;28;96574;-62
2023/09/26 05:13:52;;;;;;;;;11.00;9.25;;;;;20.65;100.00;99853.09;6240117;28;97066;-63
2023/09/26 05:16:57;;;;;;;;;12.60;11.00;;;;;20.74;100.00;99866.03;6235468;27;96812;-62
2023/09/26 05:20:00;;;;;;;;;14.00;12.00;;;;;20.71;100.00;99863.00;6235382;27;96403;-63
2023/09/26 05:23:04;;;;;;;;;13.00;11.20;;;;;20.67;100.00;99868.16;6231709;28;96362;-63
2023/09/26 05:26:08;;;;;;;;;11.40;10.00;;;;;20.59;100.00;99870.56;6239876;28;96360;-63
2023/09/26 05:29:11;;;;;;;;;13.00;13.00;;;;;20.56;100.00;99868.38;6234944;28;96430;-63
2023/09/26 05:32:16;;;;;;;;;14.25;13.75;;;;;20.70;100.00;99888.75;6241319;28;96321;-62
2023/09/26 05:35:19;;;;;;;;;12.00;11.00;;;;;20.77;100.00;99892.06;6234958;27;96323;-63
2023/09/26 05:38:23;;;;;;;;;11.40;11.00;;;;;20.91;100.00;99884.22;6237081;28;96608;-63
2023/09/26 05:41:27;;;;;;;;;14.40;13.00;;;;;21.00;100.00;99891.69;6235239;28;96373;-63
2023/09/26 05:44:30;;;;;;;;;11.00;11.00;;;;;21.01;100.00;99898.81;6238354;28;96288;-63
2023/09/26 05:47:35;;;;;;;;;14.20;13.20;;;;;21.09;100.00;99895.56;6256728;27;96209;-62
2023/09/26 05:50:39;;;;;;;;;11.80;9.80;;;;;21.10;100.00;99899.97;6242273;27;96385;-63
2023/09/26 05:53:42;;;;;;;;;12.20;11.20;;;;;21.16;100.00;99907.16;6242110;28;96916;-63
2023/09/26 05:56:45;;;;;;;;;16.00;14.00;;;;;21.20;100.00;99910.22;6241607;28;96474;-63
2023/09/26 05:59:49;;;;;;;;;14.60;14.60;;;;;21.20;100.00;99910.22;6236540;28;96815;-63
2023/09/26 06:02:54;;;;;;;;;16.25;14.00;;;;;21.15;100.00;99916.50;6240225;28;96552;-63
2023/09/26 06:05:57;;;;;;;;;18.00;15.50;;;;;21.30;100.00;99914.91;6239197;28;96470;-63
2023/09/26 06:09:00;;;;;;;;;14.40;13.40;;;;;21.49;100.00;99916.94;6240370;28;96327;-62
2023/09/26 06:12:04;;;;;;;;;14.00;13.00;;;;;21.72;100.00;99917.53;6237911;28;96676;-63
2023/09/26 06:15:09;;;;;;;;;18.00;14.00;;;;;22.04;100.00;99916.28;6238284;28;96383;-63
2023/09/26 06:18:14;;;;;;;;;15.67;13.00;;;;;22.38;100.00;99929.53;6238892;27;96525;-63
2023/09/26 06:21:18;;;;;;;;;12.80;10.00;;;;;22.67;100.00;99924.31;6237695;28;96639;-63
2023/09/26 06:24:21;;;;;;;;;14.00;12.50;;;;;22.88;100.00;99921.28;6237984;28;97066;-63
2023/09/26 06:27:24;;;;;;;;;15.00;13.00;;;;;22.93;100.00;99922.38;6238205;28;96553;-62
2023/09/26 06:30:27;;;;;;;;;17.00;14.00;;;;;22.92;100.00;99920.75;6241571;28;97110;-63
2023/09/26 06:33:32;;;;;;;;;14.00;12.80;;;;;23.01;100.00;99924.56;6239098;28;96702;-63
2023/09/26 06:36:37;;;;;;;;;16.00;12.40;;;;;23.01;100.00;99917.16;6242564;28;96393;-63
2023/09/26 06:39:40;;;;;;;;;12.40;11.00;;;;;23.02;100.00;99901.47;6242829;28;96903;-63
2023/09/26 06:42:43;;;;;;;;;13.25;12.00;;;;;23.10;100.00;99917.41;6243238;28;96526;-62
2023/09/26 06:45:47;;;;;;;;;14.40;12.80;;;;;23.09;100.00;99916.56;6240194;28;97185;-62
2023/09/26 06:48:53;;;;;;;;;13.00;11.00;;;;;23.01;100.00;99917.16;6239926;28;96508;-63
2023/09/26 06:51:56;;;;;;;;;16.00;12.00;;;;;22.76;100.00;99878.69;6239239;28;97144;-62
2023/09/26 06:55:00;;;;;;;;;17.00;14.60;;;;;23.03;100.00;99925.09;6239170;28;96607;-63
2023/09/26 06:58:04;;;;;;;;;13.00;12.00;;;;;23.04;100.00;99924.84;6240627;28;96283;-63
2023/09/26 07:01:13;;;;;;;;;15.00;13.50;;;;;23.24;100.00;99923.97;6240454;28;96276;-63
2023/09/26 07:04:18;;;;;;;;;11.40;10.80;;;;;23.57;100.00;99928.00;6241996;28;96283;-63
2023/09/26 07:07:21;;;;;;;;;12.40;11.20;;;;;23.86;100.00;99915.19;6240649;27;96383;-63
2023/09/26 07:10:26;;;;;;;;;16.00;15.00;;;;;24.32;100.00;99914.94;6223480;28;96567;-63
2023/09/26 07:13:29;;;;;;;;;13.40;12.00;;;;;24.75;100.00;99907.66;6242036;27;96267;-62
2023/09/26 07:16:51;;;;;;;;;13.00;12.00;;;;;25.49;100.00;99904.41;6242807;28;96362;-63
2023/09/26 07:19:56;;;;;;;;;17.00;14.00;;;;;26.49;100.00;99898.56;6241830;28;97291;-62
2023/09/26 07:22:59;;;;;;;;;15.00;14.00;;;;;27.64;100.00;99898.66;6248077;28;96378;-63
2023/09/26 07:26:07;;;;;;;;;12.80;12.40;;;;;28.18;100.00;99892.19;6247792;28;96423;-62
2023/09/26 07:29:12;;;;;;;;;15.40;13.00;;;;;28.84;100.00;99892.19;6248223;28;96456;-63
2023/09/26 07:32:16;;;;;;;;;12.00;12.00;;;;;29.24;100.00;99876.38;6246836;28;98441;-62
2023/09/26 07:35:20;;;;;;;;;14.60;10.80;;;;;29.98;100.00;99881.19;6281394;27;96313;-63
2023/09/26 07:38:23;;;;;;;;;11.50;11.50;;;;;30.50;100.00;99871.69;6248134;28;96377;-63
2023/09/26 07:41:27;;;;;;;;;10.00;9.00;;;;;31.30;100.00;99866.38;6279906;27;96569;-64
2023/09/26 07:44:30;;;;;;;;;11.60;11.20;;;;;31.59;100.00;99865.59;6245547;28;96365;-63
2023/09/26 07:47:34;;;;;;;;;13.00;10.00;;;;;32.23;100.00;99866.09;6247047;28;96470;-64
2023/09/26 07:50:38;;;;;;;;;12.00;10.60;;;;;32.99;100.00;99858.09;6247320;28;96374;-62
2023/09/26 07:53:41;;;;;;;;;11.60;11.00;;;;;33.50;100.00;99851.03;6279921;27;96731;-63
2023/09/26 07:56:45;;;;;;;;;12.67;10.00;;;;;33.98;100.00;99851.31;6280304;27;96406;-63
2023/09/26 07:59:48;;;;;;;;;11.40;11.40;;;;;34.37;100.00;99850.50;6227335;28;96761;-63
2023/09/26 08:02:51;;;;;;;;;13.25;12.25;;;;;34.27;100.00;99851.00;6245959;28;96619;-64
2023/09/26 08:06:00;;;;;;;;;16.00;15.00;;;;;34.47;100.00;99841.59;6247387;27;96865;-64
2023/09/26 08:09:04;;;;;;;;;15.00;13.40;;;;;34.95;100.00;99843.28;6247374;28;96464;-64
2023/09/26 08:12:08;;;;;;;;;11.20;10.20;;;;;35.33;100.00;99752.16;6246103;28;96488;-64
2023/09/26 08:15:11;;;;;;;;;11.00;10.00;;;;;35.71;100.00;99729.78;6261361;27;96458;-64
2023/09/26 08:18:15;;;;;;;;;12.60;12.00;;;;;35.89;100.00;99725.34;6246346;28;96356;-65
2023/09/26 08:21:19;;;;;;;;;9.00;9.00;;;;;36.08;100.00;99718.06;6247129;28;96242;-64
2023/09/26 08:24:23;;;;;;;;;11.00;10.00;;;;;36.24;100.00;99714.00;6249043;27;96630;-65
2023/09/26 08:27:26;;;;;;;;;9.67;9.00;;;;;36.58;100.00;99717.81;6250629;28;96942;-65
2023/09/26 08:30:29;;;;;;;;;11.00;9.60;;;;;36.72;100.00;99704.03;6231776;28;96862;-65
2023/09/26 08:33:32;;;;;;;;;10.20;9.00;;;;;36.90;100.00;99705.13;6246645;27;98380;-65
2023/09/26 08:36:37;;;;;;;;;10.50;9.00;;;;;37.19;100.00;99700.75;6249054;27;96385;-65
2023/09/26 08:39:40;;;;;;;;;11.00;10.00;;;;;37.42;100.00;99703.50;6227820;28;96861;-65
2023/09/26 08:42:45;;;;;;;;;10.00;8.00;;;;;37.46;100.00;99704.34;6227966;28;97326;-65
2023/09/26 08:45:49;;;;;;;;;10.00;9.40;;;;;37.23;100.00;99700.81;6212933;28;97027;-66
2023/09/26 08:48:55;;;;;;;;;12.00;11.00;;;;;37.42;100.00;99695.06;6246989;28;96332;-65
2023/09/26 08:52:04;;;;;;;;;9.60;9.00;;;;;37.45;100.00;99691.47;6228480;28;96297;-66
2023/09/26 08:55:09;;;;;;;;;10.00;10.00;;;;;37.46;100.00;99697.91;6246270;28;96304;-66
2023/09/26 08:58:15;;;;;;;;;11.00;10.00;;;;;37.79;99.68;99691.50;6226834;28;96722;-66
2023/09/26 09:01:19;;;;;;;;;10.00;9.00;;;;;37.92;96.59;99679.63;6245394;28;97006;-65
2023/09/26 09:04:22;;;;;;;;;11.00;10.80;;;;;38.20;96.16;99692.38;6245576;28;96275;-65
2023/09/26 09:07:27;;;;;;;;;10.40;10.00;;;;;38.35;94.12;99692.16;6245543;28;96316;-66
2023/09/26 09:10:31;;;;;;;;;11.00;9.40;;;;;38.43;93.11;99690.19;6227536;28;96396;-66
2023/09/26 09:13:37;;;;;;;;;11.60;10.00;;;;;38.73;91.11;99684.44;6246014;28;96344;-66
2023/09/26 09:16:54;;;;;;;;;11.00;10.80;;;;;39.00;88.80;99678.19;6246504;28;96228;-66
2023/09/26 09:19:58;;;;;;;;;8.80;8.80;;;;;39.35;89.25;99680.44;6245598;28;96490;-65
2023/09/26 09:23:05;;;;;;;;;10.00;8.00;;;;;39.38;89.05;99671.19;6244481;28;96616;-66
2023/09/26 09:26:12;;;;;;;;;10.60;9.00;;;;;39.39;89.10;99672.00;6244991;28;97558;-66
2023/09/26 09:29:20;;;;;;;;;9.00;8.00;;;;;39.58;89.07;99670.88;6226994;28;97488;-66
2023/09/26 09:32:24;;;;;;;;;8.60;8.00;;;;;39.83;84.94;99671.81;6244680;28;96389;-66
2023/09/26 09:35:27;;;;;;;;;9.20;8.00;;;;;39.96;85.38;99675.84;6224463;28;96626;-65
2023/09/26 09:38:34;;;;;;;;;9.00;8.00;;;;;39.68;82.68;99665.28;6243263;28;96237;-63
2023/09/26 09:41:38;;;;;;;;;8.40;8.00;;;;;39.68;84.55;99662.44;6227567;28;98539;-65
2023/09/26 09:44:43;;;;;;;;;8.20;8.00;;;;;39.77;83.13;99659.28;6227714;28;96139;-66
2023/09/26 09:47:47;;;;;;;;;9.00;8.00;;;;;39.81;83.48;99654.44;6228536;28;96358;-66
2023/09/26 09:50:54;;;;;;;;;9.80;9.00;;;;;39.86;83.97;99648.41;6202773;28;97663;-65
2023/09/26 09:54:01;;;;;;;;;7.40;7.40;;;;;40.01;83.97;99654.88;6226555;28;97450;-65
2023/09/26 09:57:09;;;;;;;;;8.80;8.00;;;;;39.99;81.71;99643.16;6227399;28;96849;-65
2023/09/26 10:00:14;;;;;;;;;11.00;11.00;;;;;40.08;83.10;99652.06;6223768;28;96358;-65
2023/09/26 10:03:18;;;;;;;;;10.75;9.00;;;;;40.09;82.27;99646.00;6237160;28;96191;-66
2023/09/26 10:06:21;;;;;;;;;9.00;9.00;;;;;39.89;82.05;99649.59;6209144;28;97435;-65
2023/09/26 10:09:29;;;;;;;;;10.00;10.00;;;;;39.78;84.40;99647.56;6244822;28;96798;-65
2023/09/26 10:12:32;;;;;;;;;9.00;9.00;;;;;39.97;82.51;99642.78;6244186;28;96892;-65
2023/09/26 10:16:11;;;;;;;;;10.00;9.00;;;;;40.06;83.33;99640.38;6230554;28;96776;-65
2023/09/26 10:19:18;;;;;;;;;10.00;10.00;;;;;39.57;83.15;99630.56;6223385;28;98266;-65
2023/09/26 10:22:35;;;;;;;;;12.60;12.00;;;;;39.21;84.91;99640.03;6225166;28;97300;-65
2023/09/26 10:25:40;;;;;;;;;11.00;9.80;;;;;39.21;86.82;99637.22;6242553;28;96308;-65
2023/09/26 10:28:43;;;;;;;;;10.50;9.25;;;;;39.31;84.94;99634.44;6223349;28;96706;-66
2023/09/26 10:31:53;;;;;;;;;9.40;9.40;;;;;39.23;84.15;99634.81;6242957;28;96917;-66
2023/09/26 10:34:57;;;;;;;;;10.00;10.00;;;;;39.03;86.90;99639.16;6219635;28;96472;-65
2023/09/26 10:38:08;;;;;;;;;11.00;10.40;;;;;39.25;85.77;99635.22;6242043;28;96257;-66
2023/09/26 10:41:13;;;;;;;;;10.00;9.50;;;;;39.29;84.87;99634.03;6183088;28;98396;-66
2023/09/26 10:44:16;;;;;;;;;10.40;10.00;;;;;39.28;85.71;99621.16;6216811;28;96326;-66
2023/09/26 10:47:21;;;;;;;;;11.00;10.60;;;;;39.58;84.74;99625.72;6236810;28;96411;-65
2023/09/26 10:50:25;;;;;;;;;12.60;12.00;;;;;39.86;83.16;99627.81;6244347;28;96326;-66
2023/09/26 10:53:28;;;;;;;;;11.00;10.00;;;;;39.83;83.60;99626.63;6243442;28;96773;-65
2023/09/26 10:56:33;;;;;;;;;11.20;10.40;;;;;39.91;83.19;99624.63;6239476;27;96370;-65
2023/09/26 10:59:36;;;;;;;;;11.00;11.00;;;;;39.81;82.30;99623.38;6230993;28;97217;-66
2023/09/26 11:02:40;;;;;;;;;9.00;9.00;;;;;39.56;83.59;99614.81;6221610;28;97631;-65
2023/09/26 11:05:44;;;;;;;;;12.00;11.00;;;;;39.33;84.66;99614.34;6230937;28;96363;-65
2023/09/26 11:08:48;;;;;;;;;9.50;9.25;;;;;39.26;85.94;99608.63;6248591;28;96877;-65
2023/09/26 11:11:55;;;;;;;;;10.60;9.00;;;;;39.31;86.09;99616.72;6248109;28;96321;-65
2023/09/26 11:14:59;;;;;;;;;9.00;8.50;;;;;39.12;88.19;99611.38;6229247;28;96680;-65
2023/09/26 11:18:02;;;;;;;;;9.00;9.00;;;;;39.14;88.02;99609.00;6247855;27;96958;-65
2023/09/26 11:21:06;;;;;;;;;9.00;8.00;;;;;39.07;88.24;99606.13;6236940;28;98346;-65
2023/09/26 11:24:31;;;;;;;;;10.20;10.20;;;;;39.18;85.05;99604.97;6258965;27;96452;-65
2023/09/26 11:27:39;;;;;;;;;9.00;9.00;;;;;39.38;87.48;99605.50;6250304;27;96382;-66
2023/09/26 11:30:42;;;;;;;;;12.50;11.00;;;;;39.31;84.97;99600.59;6248876;27;96352;-66
2023/09/26 11:33:45;;;;;;;;;11.00;10.60;;;;;39.19;85.55;99598.16;6252728;27;97711;-66
2023/09/26 11:36:49;;;;;;;;;9.40;9.00;;;;;39.08;87.02;99591.63;6253831;27;96331;-65
2023/09/26 11:39:54;;;;;;;;;10.80;9.00;;;;;38.55;87.40;99594.94;6247611;28;96930;-65
2023/09/26 11:43:03;;;;;;;;;9.00;8.00;;;;;38.26;88.89;99595.09;6242864;28;97290;-66
2023/09/26 11:46:06;;;;;;;;;10.00;10.00;;;;;38.13;91.32;99601.00;6228613;28;97163;-66
2023/09/26 11:49:09;;;;;;;;;10.50;9.00;;;;;38.45;89.34;99589.22;6248345;28;96442;-66
2023/09/26 11:52:12;;;;;;;;;10.00;9.00;;;;;38.74;89.60;99585.38;6247079;27;96200;-66
2023/09/26 11:55:17;;;;;;;;;9.00;9.00;;;;;38.71;87.77;99586.16;6249207;28;96785;-66
2023/09/26 11:58:22;;;;;;;;;8.20;8.20;;;;;38.44;89.67;99579.16;6244461;28;96279;-65
2023/09/26 12:01:26;;;;;;;;;10.60;9.00;;;;;38.11;89.83;99572.44;6242229;27;96638;-66
2023/09/26 12:04:29;;;;;;;;;9.20;7.20;;;;;38.10;90.26;99567.19;6240050;28;97458;-65
2023/09/26 12:07:33;;;;;;;;;9.00;8.25;;;;;38.09;90.00;99572.00;6249300;27;96445;-66
2023/09/26 12:10:38;;;;;;;;;11.00;10.00;;;;;37.99;90.14;99563.47;6244335;27;96732;-66
2023/09/26 12:13:47;;;;;;;;;11.00;10.00;;;;;37.89;90.04;99562.13;6250568;27;96534;-64
2023/09/26 12:16:51;;;;;;;;;9.00;8.00;;;;;37.89;90.02;99564.94;6231254;28;97445;-65
2023/09/26 12:19:55;;;;;;;;;7.20;7.00;;;;;38.02;90.39;99560.66;6235117;27;96256;-65
2023/09/26 12:23:02;;;;;;;;;8.40;8.00;;;;;37.89;89.81;99556.50;6236358;27;96282;-65
2023/09/26 12:26:05;;;;;;;;;7.00;7.00;;;;;37.65;92.21;99552.28;6236286;28;96586;-65
2023/09/26 12:29:10;;;;;;;;;10.80;9.80;;;;;37.29;92.04;99551.03;6252367;27;96573;-65
2023/09/26 12:32:13;;;;;;;;;10.40;9.60;;;;;36.91;93.27;99559.78;6238117;28;96852;-65
2023/09/26 12:35:16;;;;;;;;;8.80;8.00;;;;;36.47;95.05;99546.28;6239696;27;96282;-65
2023/09/26 12:38:20;;;;;;;;;10.00;9.00;;;;;36.36;97.62;99542.50;6272350;27;96329;-65
2023/09/26 12:41:24;;;;;;;;;10.00;9.00;;;;;36.46;99.01;99546.66;6230850;28;96853;-65
2023/09/26 12:44:29;;;;;;;;;9.80;8.80;;;;;36.47;98.03;99537.06;6242826;27;96281;-66
2023/09/26 12:47:32;;;;;;;;;12.00;11.00;;;;;36.43;99.33;99536.19;6252402;27;96850;-65
2023/09/26 12:50:36;;;;;;;;;12.00;11.00;;;;;36.47;100.00;99545.47;6274045;27;96901;-65
2023/09/26 12:53:40;;;;;;;;;11.00;9.00;;;;;36.41;98.83;99542.19;6260836;27;96671;-65
2023/09/26 12:56:43;;;;;;;;;10.25;9.25;;;;;36.21;99.88;99534.25;6245597;27;98734;-65
2023/09/26 12:59:49;;;;;;;;;9.75;9.00;;;;;36.02;100.00;99537.91;6280745;27;96755;-65
2023/09/26 13:02:54;;;;;;;;;9.25;9.25;;;;;35.64;100.00;99517.22;6268108;27;96327;-65
2023/09/26 13:05:58;;;;;;;;;9.00;9.00;;;;;35.58;100.00;99524.31;6256730;27;96412;-64
2023/09/26 13:09:01;;;;;;;;;11.40;11.00;;;;;35.30;100.00;99531.38;6249594;27;96436;-65
2023/09/26 13:12:04;;;;;;;;;13.00;12.00;;;;;35.14;100.00;99520.22;6245262;27;96461;-65
2023/09/26 13:15:10;;;;;;;;;11.20;9.80;;;;;35.16;100.00;99521.47;6256276;27;96789;-65
2023/09/26 13:18:13;;;;;;;;;12.25;10.25;;;;;35.22;100.00;99513.63;6243933;27;96667;-65
2023/09/26 13:21:18;;;;;;;;;10.00;9.00;;;;;35.20;100.00;99513.16;6227490;27;97292;-64
2023/09/26 13:24:21;;;;;;;;;10.60;9.60;;;;;35.27;100.00;99513.31;6244208;27;96485;-65
2023/09/26 13:27:24;;;;;;;;;11.20;10.60;;;;;35.36;100.00;99521.50;6244840;28;96421;-64
2023/09/26 13:30:30;;;;;;;;;9.00;8.60;;;;;35.42;100.00;99514.41;6243296;28;96384;-64
2023/09/26 13:33:33;;;;;;;;;12.40;11.40;;;;;35.40;100.00;99511.97;6245075;28;97901;-64
2023/09/26 13:36:36;;;;;;;;;11.00;10.50;;;;;35.44;100.00;99515.63;6245051;28;96380;-64
2023/09/26 13:39:39;;;;;;;;;12.00;11.00;;;;;35.55;100.00;99511.03;6244809;28;97054;-64
2023/09/26 13:42:43;;;;;;;;;11.75;11.00;;;;;35.57;100.00;99513.47;6226103;28;96649;-64
2023/09/26 13:45:47;;;;;;;;;11.80;11.00;;;;;35.58;100.00;99512.28;6226429;28;97019;-64
2023/09/26 13:48:50;;;;;;;;;12.00;9.40;;;;;35.52;100.00;99508.19;6243675;28;96533;-65
2023/09/26 13:51:55;;;;;;;;;10.75;10.25;;;;;35.38;100.00;99514.34;6245530;28;96402;-65
2023/09/26 13:54:59;;;;;;;;;11.00;11.00;;;;;35.25;100.00;99512.06;6244975;28;96388;-65
2023/09/26 13:58:05;;;;;;;;;13.00;11.00;;;;;35.22;100.00;99516.44;6244723;28;96464;-65
2023/09/26 14:01:13;;;;;;;;;10.00;10.00;;;;;35.16;100.00;99498.25;6209154;28;96920;-65
2023/09/26 14:04:19;;;;;;;;;11.50;11.00;;;;;35.09;100.00;99506.53;6231180;28;96891;-65